createdAt,value
2019-03-15T00:02:14.772Z,86.95
2019-03-15T00:04:41.319Z,85.80
2019-03-15T00:07:07.949Z,88.70
2019-03-15T00:09:34.382Z,89.43
2019-03-15T00:12:00.817Z,88.95
2019-03-15T00:14:27.253Z,88.32
2019-03-15T00:16:53.685Z,86.82
2019-03-15T00:19:20.220Z,86.87
2019-03-15T00:21:46.650Z,87.07
2019-03-15T00:24:13.186Z,86.77
2019-03-15T00:26:39.722Z,87.35
2019-03-15T00:29:06.751Z,89.31
2019-03-15T00:31:33.306Z,88.58
2019-03-15T00:33:59.844Z,88.04
2019-03-15T00:36:27.402Z,87.39
2019-03-15T00:38:54.125Z,86.93
2019-03-15T00:41:20.704Z,87.00
2019-03-15T00:43:49.488Z,87.77
2019-03-15T00:46:15.901Z,88.56
2019-03-15T00:48:42.334Z,88.31
2019-03-15T00:51:08.767Z,87.60
2019-03-15T00:53:35.303Z,87.93
2019-03-15T00:56:01.848Z,87.61
2019-03-15T00:58:28.376Z,87.25
2019-03-15T01:00:55.016Z,88.44
2019-03-15T01:03:21.551Z,89.39
2019-03-15T01:05:50.208Z,88.87
2019-03-15T01:08:17.890Z,87.28
2019-03-15T01:10:45.697Z,87.91
2019-03-15T01:13:13.257Z,87.09
2019-03-15T01:15:41.446Z,87.97
2019-03-15T01:18:08.139Z,88.27
2019-03-15T01:20:34.571Z,88.67
2019-03-15T01:23:01.006Z,88.06
2019-03-15T01:25:27.540Z,88.69
2019-03-15T01:27:54.077Z,88.08
2019-03-15T01:30:20.818Z,87.14
2019-03-15T01:32:47.558Z,87.96
2019-03-15T01:35:14.096Z,89.16
2019-03-15T01:37:40.531Z,89.17
2019-03-15T01:40:07.065Z,88.66
2019-03-15T01:42:33.497Z,89.73
2019-03-15T01:45:00.647Z,89.33
2019-03-15T01:47:27.184Z,89.47
2019-03-15T01:49:53.720Z,90.78
2019-03-15T01:52:20.255Z,90.66
2019-03-15T01:54:46.795Z,88.96
2019-03-15T01:57:13.226Z,88.72
2019-03-15T01:59:39.658Z,90.69
2019-03-15T02:02:06.096Z,90.19
2019-03-15T02:04:32.834Z,91.35
2019-03-15T02:06:59.369Z,89.72
2019-03-15T02:09:25.907Z,88.30
2019-03-15T02:11:52.340Z,88.29
2019-03-15T02:14:19.080Z,88.69
2019-03-15T02:16:45.719Z,89.03
2019-03-15T02:19:12.254Z,90.25
2019-03-15T02:21:38.689Z,89.37
2019-03-15T02:24:05.124Z,89.87
2019-03-15T02:26:31.713Z,89.88
2019-03-15T02:28:58.423Z,90.68
2019-03-15T02:31:26.703Z,90.93
2019-03-15T02:33:53.216Z,89.54
2019-03-15T02:36:19.749Z,90.02
2019-03-15T02:38:46.285Z,89.35
2019-03-15T02:41:12.827Z,89.41
2019-03-15T02:43:39.253Z,90.09
2019-03-15T02:46:05.788Z,89.65
2019-03-15T02:48:32.326Z,88.85
2019-03-15T02:50:58.760Z,88.71
2019-03-15T02:53:25.199Z,87.93
2019-03-15T02:55:51.729Z,87.46
2019-03-15T02:58:18.157Z,88.75
2019-03-15T03:00:44.591Z,89.39
2019-03-15T03:03:11.026Z,88.25
2019-03-15T03:05:37.665Z,88.68
2019-03-15T03:08:04.108Z,89.53
2019-03-15T03:10:30.540Z,89.47
2019-03-15T03:12:56.969Z,88.99
2019-03-15T03:15:25.035Z,88.46
2019-03-15T03:17:51.778Z,88.01
2019-03-15T03:20:18.314Z,89.78
2019-03-15T03:22:44.745Z,88.34
2019-03-15T03:25:11.282Z,88.54
2019-03-15T03:27:37.716Z,87.64
2019-03-15T03:30:09.285Z,89.41
2019-03-15T03:32:35.918Z,89.75
2019-03-15T03:35:03.892Z,89.86
2019-03-15T03:37:30.415Z,89.05
2019-03-15T03:39:56.860Z,88.00
2019-03-15T03:42:23.281Z,87.39
2019-03-15T03:44:50.127Z,88.21
2019-03-15T03:47:16.558Z,87.59
2019-03-15T03:49:42.990Z,88.05
2019-03-15T03:52:09.423Z,90.23
2019-03-15T03:54:35.960Z,88.69
2019-03-15T03:57:02.904Z,87.61
2019-03-15T03:59:29.542Z,87.95
2019-03-15T04:01:55.979Z,87.95
2019-03-15T04:04:22.410Z,87.56
2019-03-15T04:06:49.166Z,87.40
2019-03-15T04:09:15.687Z,87.43
2019-03-15T04:11:54.891Z,88.55
2019-03-15T04:14:10.502Z,89.25
2019-03-15T04:16:37.038Z,87.42
2019-03-15T04:19:03.473Z,87.77
2019-03-15T04:21:29.907Z,88.55
2019-03-15T04:23:56.430Z,86.94
2019-03-15T04:26:23.384Z,86.83
2019-03-15T04:28:49.817Z,87.66
2019-03-15T04:31:16.457Z,87.42
2019-03-15T04:33:42.994Z,86.80
2019-03-15T04:36:09.530Z,87.00
2019-03-15T04:38:35.963Z,87.52
2019-03-15T04:41:02.498Z,87.20
2019-03-15T04:43:28.932Z,86.80
2019-03-15T04:45:55.476Z,87.77
2019-03-15T04:48:22.003Z,86.17
2019-03-15T04:50:48.436Z,89.16
2019-03-15T04:53:14.870Z,88.16
2019-03-15T04:55:41.404Z,87.70
2019-03-15T04:58:07.838Z,87.64
2019-03-15T05:00:34.271Z,87.50
2019-03-15T05:03:00.763Z,87.59
2019-03-15T05:05:27.347Z,89.37
2019-03-15T05:07:53.879Z,88.65
2019-03-15T05:10:20.312Z,88.70
2019-03-15T05:12:46.849Z,88.46
2019-03-15T05:15:13.391Z,89.06
2019-03-15T05:17:39.820Z,87.68
2019-03-15T05:20:07.942Z,86.64
2019-03-15T05:22:34.429Z,86.44
2019-03-15T05:25:00.962Z,88.77
2019-03-15T05:27:27.395Z,87.54
2019-03-15T05:29:54.136Z,86.66
2019-03-15T05:32:20.676Z,87.57
2019-03-15T05:34:47.208Z,87.41
2019-03-15T05:37:13.641Z,87.66
2019-03-15T05:39:40.076Z,88.92
2019-03-15T05:42:06.509Z,87.10
2019-03-15T05:44:33.045Z,86.93
2019-03-15T05:46:59.477Z,88.08
2019-03-15T05:49:25.913Z,87.36
2019-03-15T05:51:52.346Z,87.10
2019-03-15T05:54:18.831Z,86.76
2019-03-15T05:56:45.419Z,87.45
2019-03-15T05:59:11.837Z,86.23
2019-03-15T06:01:38.285Z,87.30
2019-03-15T06:04:04.820Z,87.86
2019-03-15T06:06:31.356Z,88.79
2019-03-15T06:08:57.898Z,86.43
2019-03-15T06:11:24.324Z,86.87
2019-03-15T06:13:50.861Z,86.67
2019-03-15T06:16:17.398Z,87.30
2019-03-15T06:18:44.137Z,87.23
2019-03-15T06:21:10.879Z,87.20
2019-03-15T06:23:37.312Z,86.30
2019-03-15T06:26:03.953Z,86.99
2019-03-15T06:28:30.383Z,87.71
2019-03-15T06:30:57.021Z,87.26
2019-03-15T06:33:23.763Z,89.22
2019-03-15T06:35:50.304Z,88.27
2019-03-15T06:38:16.941Z,87.47
2019-03-15T06:40:43.475Z,86.26
2019-03-15T06:43:12.993Z,87.27
2019-03-15T06:45:41.580Z,86.33
2019-03-15T06:48:06.768Z,86.87
2019-03-15T06:50:33.205Z,87.69
2019-03-15T06:52:59.635Z,87.34
2019-03-15T06:55:26.175Z,87.35
2019-03-15T06:57:52.603Z,87.63
2019-03-15T07:00:19.042Z,86.49
2019-03-15T07:02:46.060Z,87.17
2019-03-15T07:05:13.133Z,88.37
2019-03-15T07:07:39.570Z,88.88
2019-03-15T07:10:08.388Z,88.15
2019-03-15T07:12:34.893Z,88.15
2019-03-15T07:15:01.431Z,87.55
2019-03-15T07:17:28.067Z,88.07
2019-03-15T07:19:54.798Z,88.60
2019-03-15T07:22:21.244Z,88.48
2019-03-15T07:24:47.775Z,88.25
2019-03-15T07:27:14.210Z,88.65
2019-03-15T07:29:42.487Z,90.47
2019-03-15T07:32:08.921Z,91.96
2019-03-15T07:34:35.455Z,88.73
2019-03-15T07:37:01.888Z,88.82
2019-03-15T07:39:28.424Z,88.69
2019-03-15T07:41:54.859Z,88.24
2019-03-15T07:44:21.293Z,87.99
2019-03-15T07:46:50.908Z,88.83
2019-03-15T07:49:16.431Z,88.83
2019-03-15T07:51:42.947Z,89.09
2019-03-15T07:54:09.487Z,89.62
2019-03-15T07:56:36.019Z,88.67
2019-03-15T07:59:02.656Z,87.83
2019-03-15T08:01:29.094Z,88.30
2019-03-15T08:03:55.527Z,88.93
2019-03-15T08:06:34.179Z,87.41
2019-03-15T08:08:50.439Z,87.12
2019-03-15T08:11:16.978Z,87.87
2019-03-15T08:13:43.511Z,87.85
2019-03-15T08:16:10.047Z,89.39
2019-03-15T08:18:36.487Z,88.71
2019-03-15T08:21:03.428Z,87.58
2019-03-15T08:23:29.966Z,87.33
2019-03-15T08:25:56.503Z,86.57
2019-03-15T08:28:22.935Z,86.80
2019-03-15T08:30:49.368Z,86.61
2019-03-15T08:33:15.803Z,87.46
2019-03-15T08:35:42.335Z,87.46
2019-03-15T08:38:08.769Z,86.95
2019-03-15T08:40:35.203Z,86.80
2019-03-15T08:43:02.865Z,89.11
2019-03-15T08:45:29.708Z,87.44
2019-03-15T08:47:56.141Z,87.77
2019-03-15T08:50:24.573Z,87.12
2019-03-15T08:52:53.871Z,88.81
2019-03-15T08:55:19.434Z,88.84
2019-03-15T08:57:45.871Z,88.28
2019-03-15T09:00:17.490Z,86.74
2019-03-15T09:02:44.061Z,86.20
2019-03-15T09:05:12.854Z,85.94
2019-03-15T09:07:39.282Z,86.96
2019-03-15T09:10:21.938Z,87.02
2019-03-15T09:12:39.214Z,87.98
2019-03-15T09:15:07.777Z,86.89
2019-03-15T09:17:34.233Z,87.38
2019-03-15T09:20:00.776Z,88.31
2019-03-15T09:22:27.319Z,88.46
2019-03-15T09:24:53.840Z,87.98
2019-03-15T09:27:20.273Z,87.45
2019-03-15T09:29:46.707Z,85.90
2019-03-15T09:32:13.244Z,86.34
2019-03-15T09:34:39.797Z,86.89
2019-03-15T09:37:06.319Z,88.04
2019-03-15T09:39:32.750Z,87.84
2019-03-15T09:41:59.284Z,89.74
2019-03-15T09:44:25.722Z,88.94
2019-03-15T09:46:52.151Z,88.49
2019-03-15T09:49:18.585Z,86.54
2019-03-15T09:51:45.020Z,86.49
2019-03-15T09:54:11.555Z,87.65
2019-03-15T09:56:38.093Z,87.66
2019-03-15T09:59:04.530Z,87.31
2019-03-15T10:01:35.099Z,85.40
2019-03-15T10:03:59.339Z,85.87
2019-03-15T10:06:28.846Z,86.42
2019-03-15T10:08:55.385Z,87.08
2019-03-15T10:11:22.124Z,88.05
2019-03-15T10:13:48.673Z,88.32
2019-03-15T10:16:15.192Z,88.24
2019-03-15T10:18:41.628Z,87.65
2019-03-15T10:21:09.427Z,87.00
2019-03-15T10:23:36.132Z,88.26
2019-03-15T10:26:02.667Z,87.53
2019-03-15T10:28:29.103Z,87.30
2019-03-15T10:30:55.533Z,87.00
2019-03-15T10:33:22.071Z,86.92
2019-03-15T10:35:48.608Z,87.86
2019-03-15T10:38:16.759Z,87.98
2019-03-15T10:40:43.423Z,87.45
2019-03-15T10:43:09.856Z,88.07
2019-03-15T10:45:36.499Z,88.54
2019-03-15T10:48:03.130Z,89.72
2019-03-15T10:50:29.563Z,88.80
2019-03-15T10:52:56.001Z,87.50
2019-03-15T10:55:22.531Z,88.13
2019-03-15T10:57:49.130Z,88.36
2019-03-15T11:00:17.038Z,88.60
2019-03-15T11:02:43.472Z,90.04
2019-03-15T11:05:10.113Z,89.17
2019-03-15T11:07:36.550Z,88.57
2019-03-15T11:10:04.102Z,86.71
2019-03-15T11:12:30.638Z,86.35
2019-03-15T11:14:57.381Z,86.75
2019-03-15T11:17:23.914Z,86.60
2019-03-15T11:19:50.335Z,87.41
2019-03-15T11:22:16.783Z,87.30
2019-03-15T11:24:43.941Z,88.37
2019-03-15T11:27:10.570Z,88.19
2019-03-15T11:29:37.106Z,86.68
2019-03-15T11:32:03.642Z,85.81
2019-03-15T11:34:30.074Z,85.63
2019-03-15T11:36:58.450Z,85.95
2019-03-15T11:39:24.889Z,86.27
2019-03-15T11:41:51.444Z,85.48
2019-03-15T11:44:17.858Z,86.11
2019-03-15T11:46:44.396Z,86.00
2019-03-15T11:49:10.954Z,86.90
2019-03-15T11:51:37.472Z,85.49
2019-03-15T11:54:04.017Z,84.64
2019-03-15T11:56:30.541Z,84.39
2019-03-15T11:58:57.380Z,84.21
2019-03-15T12:01:23.813Z,84.50
2019-03-15T12:03:53.304Z,84.14
2019-03-15T12:06:18.732Z,83.85
2019-03-15T12:08:45.264Z,83.97
2019-03-15T12:11:11.697Z,83.78
2019-03-15T12:13:40.177Z,84.32
2019-03-15T12:16:06.922Z,84.29
2019-03-15T12:18:33.456Z,84.21
2019-03-15T12:21:02.859Z,84.23
2019-03-15T12:23:29.288Z,84.36
2019-03-15T12:25:55.829Z,84.09
2019-03-15T12:28:22.262Z,84.09
2019-03-15T12:30:48.801Z,83.53
2019-03-15T12:33:15.337Z,83.95
2019-03-15T12:35:41.875Z,83.87
2019-03-15T12:38:08.410Z,83.54
2019-03-15T12:40:34.941Z,83.60
2019-03-15T12:43:02.899Z,83.44
2019-03-15T12:45:29.567Z,82.52
2019-03-15T12:47:55.984Z,82.10
2019-03-15T12:50:22.523Z,82.59
2019-03-15T12:52:49.158Z,82.59
2019-03-15T12:55:15.693Z,82.02
2019-03-15T12:57:42.236Z,82.23
2019-03-15T13:00:14.090Z,82.23
2019-03-15T13:02:40.638Z,82.83
2019-03-15T13:05:07.469Z,85.20
2019-03-15T13:07:34.005Z,85.20
2019-03-15T13:10:00.540Z,85.77
2019-03-15T13:12:27.178Z,84.68
2019-03-15T13:14:53.817Z,83.39
2019-03-15T13:17:20.357Z,83.86
2019-03-15T13:19:55.007Z,84.50
2019-03-15T13:22:15.170Z,86.48
2019-03-15T13:24:41.704Z,86.21
2019-03-15T13:27:08.245Z,85.68
2019-03-15T13:29:34.672Z,83.64
2019-03-15T13:32:01.105Z,84.70
2019-03-15T13:34:27.643Z,85.45
2019-03-15T13:36:54.176Z,83.89
2019-03-15T13:39:20.610Z,84.27
2019-03-15T13:41:47.148Z,84.73
2019-03-15T13:44:13.579Z,84.73
2019-03-15T13:46:40.122Z,84.42
2019-03-15T13:49:06.551Z,83.94
2019-03-15T13:51:33.085Z,83.20
2019-03-15T13:53:59.621Z,84.04
2019-03-15T13:56:26.157Z,83.80
2019-03-15T13:58:57.484Z,84.63
2019-03-15T14:01:21.083Z,84.63
2019-03-15T14:03:47.505Z,84.41
2019-03-15T14:06:14.251Z,85.03
2019-03-15T14:08:40.986Z,85.47
2019-03-15T14:11:07.523Z,84.91
2019-03-15T14:13:34.058Z,84.91
2019-03-15T14:16:01.714Z,83.73
2019-03-15T14:18:28.669Z,84.11
2019-03-15T14:20:55.204Z,83.57
2019-03-15T14:23:21.663Z,83.92
2019-03-15T14:25:48.179Z,84.04
2019-03-15T14:28:14.707Z,85.23
2019-03-15T14:30:41.244Z,84.92
2019-03-15T14:33:07.685Z,85.28
2019-03-15T14:35:34.213Z,87.63
2019-03-15T14:38:00.749Z,87.36
2019-03-15T14:40:27.238Z,87.36
2019-03-15T14:42:53.731Z,86.35
2019-03-15T14:45:20.378Z,87.97
2019-03-15T14:47:46.895Z,87.60
2019-03-15T14:50:13.845Z,87.60
2019-03-15T14:52:40.272Z,87.00
2019-03-15T14:55:12.545Z,88.00
2019-03-15T14:57:51.359Z,88.37
2019-03-15T15:00:12.679Z,87.26
2019-03-15T15:02:39.115Z,88.01
2019-03-15T15:05:07.773Z,87.89
2019-03-15T15:07:34.439Z,87.89
2019-03-15T15:10:00.880Z,87.58
2019-03-15T15:12:27.513Z,86.97
2019-03-15T15:14:54.148Z,85.79
2019-03-15T15:17:20.684Z,86.19
2019-03-15T15:19:47.219Z,87.22
2019-03-15T15:22:13.656Z,87.62
2019-03-15T15:24:40.190Z,87.48
2019-03-15T15:27:06.728Z,85.96
2019-03-15T15:29:33.266Z,85.96
2019-03-15T15:31:59.802Z,87.06
2019-03-15T15:34:26.336Z,87.08
2019-03-15T15:36:52.871Z,87.08
2019-03-15T15:39:21.062Z,86.98
2019-03-15T15:41:47.892Z,86.07
2019-03-15T15:44:14.478Z,86.41
2019-03-15T15:46:41.064Z,86.36
2019-03-15T15:49:08.824Z,87.03
2019-03-15T15:51:35.361Z,87.63
2019-03-15T15:54:01.898Z,88.46
2019-03-15T15:56:28.432Z,88.14
2019-03-15T15:58:54.869Z,87.93
2019-03-15T16:01:21.402Z,87.91
2019-03-15T16:03:47.837Z,88.17
2019-03-15T16:06:14.372Z,87.79
2019-03-15T16:08:42.650Z,87.87
2019-03-15T16:11:09.186Z,87.93
2019-03-15T16:13:36.132Z,87.77
2019-03-15T16:16:02.774Z,88.43
2019-03-15T16:18:29.283Z,88.43
2019-03-15T16:20:55.946Z,87.18
2019-03-15T16:23:22.482Z,87.12
2019-03-15T16:25:49.020Z,86.02
2019-03-15T16:28:15.557Z,86.44
2019-03-15T16:30:42.296Z,86.51
2019-03-15T16:33:08.832Z,86.26
2019-03-15T16:35:36.702Z,87.43
2019-03-15T16:38:03.243Z,86.91
2019-03-15T16:40:29.771Z,86.23
2019-03-15T16:42:58.069Z,87.10
2019-03-15T16:45:29.026Z,86.62
2019-03-15T16:47:55.456Z,85.60
2019-03-15T16:50:21.966Z,85.60
2019-03-15T16:52:48.504Z,87.48
2019-03-15T16:55:15.027Z,87.48
2019-03-15T16:57:41.564Z,87.12
2019-03-15T17:00:11.167Z,88.79
2019-03-15T17:02:37.702Z,88.52
2019-03-15T17:05:06.076Z,87.24
2019-03-15T17:07:32.519Z,89.78
2019-03-15T17:09:59.052Z,90.39
2019-03-15T17:12:25.484Z,91.03
2019-03-15T17:14:52.432Z,91.15
2019-03-15T17:17:18.965Z,89.96
2019-03-15T17:19:45.400Z,89.96
2019-03-15T17:22:11.937Z,90.45
2019-03-15T17:24:38.622Z,90.13
2019-03-15T17:27:05.113Z,89.72
2019-03-15T17:29:31.549Z,89.23
2019-03-15T17:31:57.978Z,90.95
2019-03-15T17:34:24.410Z,90.29
2019-03-15T17:36:50.844Z,90.44
2019-03-15T17:39:17.280Z,91.45
2019-03-15T17:41:43.711Z,91.50
2019-03-15T17:44:10.246Z,90.30
2019-03-15T17:46:36.785Z,90.30
2019-03-15T17:49:03.215Z,90.51
2019-03-15T17:51:29.650Z,90.27
2019-03-15T17:53:56.085Z,90.57
2019-03-15T17:56:22.618Z,90.90
2019-03-15T17:58:49.054Z,90.78
2019-03-15T18:01:15.488Z,90.73
2019-03-15T18:03:41.950Z,90.51
2019-03-15T18:06:08.865Z,90.80
2019-03-15T18:08:35.401Z,90.37
2019-03-15T18:11:01.835Z,89.87
2019-03-15T18:13:28.687Z,89.80
2019-03-15T18:15:55.319Z,89.85
2019-03-15T18:18:21.750Z,90.05
2019-03-15T18:20:48.183Z,89.22
2019-03-15T18:23:14.719Z,89.14
2019-03-15T18:25:41.259Z,89.79
2019-03-15T18:28:07.688Z,90.08
2019-03-15T18:30:34.224Z,90.62
2019-03-15T18:33:00.657Z,90.59
2019-03-15T18:35:33.517Z,91.01
2019-03-15T18:37:55.572Z,90.55
2019-03-15T18:40:25.388Z,90.86
2019-03-15T18:42:51.922Z,90.86
2019-03-15T18:45:18.560Z,91.13
2019-03-15T18:47:45.301Z,90.64
2019-03-15T18:50:22.998Z,91.15
2019-03-15T18:52:49.432Z,91.15
2019-03-15T18:55:16.072Z,91.07
2019-03-15T18:57:42.506Z,91.33
2019-03-15T19:00:19.592Z,90.97
2019-03-15T19:02:46.022Z,91.09
2019-03-15T19:05:12.674Z,91.06
2019-03-15T19:07:39.194Z,90.81
2019-03-15T19:10:07.919Z,90.54
2019-03-15T19:12:34.416Z,90.47
2019-03-15T19:15:01.055Z,90.57
2019-03-15T19:17:27.488Z,90.82
2019-03-15T19:19:54.126Z,90.99
2019-03-15T19:22:20.567Z,90.74
2019-03-15T19:24:47.311Z,90.73
2019-03-15T19:27:13.843Z,89.43
2019-03-15T19:29:52.723Z,89.43
2019-03-15T19:32:09.777Z,89.81
2019-03-15T19:34:38.044Z,89.89
2019-03-15T19:37:06.329Z,90.06
2019-03-15T19:39:34.606Z,90.28
2019-03-15T19:42:02.379Z,91.26
2019-03-15T19:44:28.906Z,91.06
2019-03-15T19:46:55.442Z,91.13
2019-03-15T19:49:21.876Z,91.04
2019-03-15T19:51:48.416Z,90.51
2019-03-15T19:54:14.948Z,89.45
2019-03-15T19:56:41.484Z,89.06
2019-03-15T19:59:07.916Z,88.88
2019-03-15T20:01:34.351Z,89.86
2019-03-15T20:04:00.890Z,90.27
2019-03-15T20:06:27.528Z,90.27
2019-03-15T20:08:53.958Z,90.04
2019-03-15T20:11:20.393Z,91.32
2019-03-15T20:13:47.187Z,91.38
2019-03-15T20:16:13.771Z,90.58
2019-03-15T20:18:40.307Z,90.33
2019-03-15T20:21:06.844Z,90.00
2019-03-15T20:23:33.277Z,90.05
2019-03-15T20:25:59.915Z,90.40
2019-03-15T20:28:26.758Z,90.15
2019-03-15T20:30:53.193Z,90.35
2019-03-15T20:33:19.738Z,90.21
2019-03-15T20:35:48.311Z,90.23
2019-03-15T20:38:16.636Z,89.84
2019-03-15T20:40:43.124Z,90.85
2019-03-15T20:43:09.559Z,90.63
2019-03-15T20:45:36.297Z,90.65
2019-03-15T20:48:02.735Z,90.53
2019-03-15T20:50:29.254Z,90.28
2019-03-15T20:53:07.665Z,90.04
2019-03-15T20:55:28.405Z,89.48
2019-03-15T20:57:54.002Z,89.71
2019-03-15T21:00:34.313Z,89.67
2019-03-15T21:02:49.734Z,89.45
2019-03-15T21:05:16.274Z,89.23
2019-03-15T21:07:43.696Z,89.23
2019-03-15T21:10:14.254Z,89.59
2019-03-15T21:12:40.794Z,89.89
2019-03-15T21:15:10.192Z,89.20
2019-03-15T21:17:36.727Z,89.06
2019-03-15T21:20:06.502Z,88.86
2019-03-15T21:22:34.310Z,88.89
2019-03-15T21:25:00.840Z,89.29
2019-03-15T21:27:27.379Z,89.19
2019-03-15T21:29:53.810Z,89.21
2019-03-15T21:32:20.409Z,88.50
2019-03-15T21:34:46.985Z,88.77
2019-03-15T21:37:13.418Z,88.30
2019-03-15T21:39:39.853Z,88.67
2019-03-15T21:42:06.285Z,88.46
2019-03-15T21:44:32.830Z,88.79
2019-03-15T21:46:59.262Z,89.18
2019-03-15T21:49:25.796Z,90.79
2019-03-15T21:51:52.224Z,90.63
2019-03-15T21:54:18.759Z,90.34
2019-03-15T21:56:45.400Z,91.42
2019-03-15T21:59:11.834Z,90.47
2019-03-15T22:01:38.268Z,89.79
2019-03-15T22:04:04.701Z,89.59
2019-03-15T22:06:31.235Z,89.20
2019-03-15T22:08:57.668Z,89.03
2019-03-15T22:11:24.204Z,87.60
2019-03-15T22:13:50.740Z,88.43
2019-03-15T22:16:17.481Z,89.07
2019-03-15T22:18:44.020Z,89.09
2019-03-15T22:21:10.576Z,88.66
2019-03-15T22:23:37.089Z,90.18
2019-03-15T22:26:03.832Z,89.60
2019-03-15T22:28:30.365Z,90.68
2019-03-15T22:30:56.802Z,89.70
2019-03-15T22:33:23.232Z,88.86
2019-03-15T22:35:49.870Z,89.46
2019-03-15T22:38:26.132Z,89.59
2019-03-15T22:40:44.967Z,89.04
2019-03-15T22:43:11.425Z,89.18
2019-03-15T22:45:37.960Z,89.80
2019-03-15T22:48:04.496Z,89.18
2019-03-15T22:50:52.851Z,89.63
2019-03-15T22:53:20.812Z,89.39
2019-03-15T22:55:47.759Z,88.26
2019-03-15T22:58:14.301Z,89.10
2019-03-15T23:00:41.240Z,89.53
2019-03-15T23:03:07.676Z,89.33
2019-03-15T23:05:34.212Z,89.15
2019-03-15T23:08:00.744Z,89.39
2019-03-15T23:10:27.182Z,90.03
2019-03-15T23:12:53.683Z,89.83
2019-03-15T23:15:20.250Z,90.26
2019-03-15T23:17:46.683Z,89.39
2019-03-15T23:20:13.121Z,89.98
2019-03-15T23:22:39.554Z,89.21
2019-03-15T23:25:07.112Z,89.17
2019-03-15T23:27:33.662Z,89.03
2019-03-15T23:30:00.385Z,88.76
2019-03-15T23:32:27.129Z,88.83
2019-03-15T23:34:53.767Z,88.80
2019-03-15T23:37:20.200Z,88.94
2019-03-15T23:39:46.638Z,89.04
2019-03-15T23:42:13.070Z,89.36
2019-03-15T23:44:39.606Z,89.59
2019-03-15T23:47:06.038Z,89.48
2019-03-15T23:49:33.904Z,89.10
2019-03-15T23:52:00.646Z,88.98
2019-03-15T23:54:27.183Z,89.06
2019-03-15T23:56:53.615Z,88.88
2019-03-15T23:59:20.152Z,88.96
